Pagrindinis puslapis
METAR-TAF:

METAR-TAF

Oro uostai :

Bogota, Kolumbija

platuma: 04-43N, ilguma: 074-09W, Aukštis: 2547 m

Dabartinis oras

Ataskaita buvo paskelbta 44 minutes, ne 04:00 UTC
Vėjas 4 kt iš Rytų
Temperatūra 14°C
Drėgmė 67%
Slėgis 1028 hPa
Matomumas 10 km arba daugiau
Mažai debesys ne aukštis 1700 ft
Išsisklaidę debesys ne aukštis 7000 ft

METAR: SKBO 180400Z 10004KT 9999 FEW017 SCT070 14/08 A3037 NOSIG

Laikas: 23:44 (04:44 UTC)

Prognozė

Ataskaita buvo paskelbta 6 valandos ir 14 minutes, ne 22:30 UTC
Prognozė galioja nuo 18 metu 00 UTC su 18 metu 24 UTC
Vėjas 5 kt iš Šiaurės Rytų
Matomumas 10 km arba daugiau
Išsisklaidę debesys ne aukštis 1600 ft
Išsisklaidę debesys ne aukštis 7000 ft
Tapsmas
nuo 18 metu 15 UTC su 18 metu 17 UTC
Vėjas 10 kt iš Pietryčių

TAF: SKBO 172230Z 1800/1824 05005KT 9999 SCT016 SCT070 BECMG 1815/1817 13010KT TX20/1818Z TN07/1811Z

Orai ataskaitas ir orų prognozės (METAR, TAF).

turimą stotys yra geltonos ir raudonos taškus žemėlapyje.

Perkelti pele per norėdami pamatyti stoties vardą.

Tada spustelėkite, norėdami matyti oro stebėjimo ir prognozės.

Norėdami pakeisti žemėlapį: spustelėkite ant žalios mygtukų su juodo kryžiaus žemyn,; žalią mygtuką su brūkšneliu, jei norite nutolinti; arba žalių rodyklių gretimoms žemėlapius.


METAR-TAF: